Time;durP1;ratioP1;P1;durP2;ratioP2;P2;SDS_P1;SDS_P2;PMS_P1;PMS_P2;Temp;Humidity;BMP_temperature;BMP_pressure;BME280_temperature;BME280_humidity;BME280_pressure;Samples;Min_cycle;Max_cycle;Signal;HPM_P1;HPM_P2
2021/12/10 00:00:26;;;;;;;7.50;1.37;;;3.90;99.90;;;;;;5093928;28;20024;-83
2021/12/10 00:02:53;;;;;;;4.23;1.10;;;3.90;99.90;;;;;;5094989;28;20085;-83
2021/12/10 00:05:29;;;;;;;2.60;1.10;;;3.90;99.90;;;;;;5094259;28;20391;-84
2021/12/10 00:07:55;;;;;;;5.60;1.17;;;3.80;99.90;;;;;;5094387;28;20020;-83
2021/12/10 00:10:26;;;;;;;5.90;1.73;;;3.90;99.90;;;;;;5092426;28;20073;-83
2021/12/10 00:12:53;;;;;;;5.93;1.17;;;3.80;99.90;;;;;;5093342;28;20057;-83
2021/12/10 00:15:22;;;;;;;2.77;1.20;;;3.80;99.90;;;;;;5094136;28;20023;-83
2021/12/10 00:17:49;;;;;;;6.80;1.20;;;3.80;99.90;;;;;;5094137;28;20473;-83
2021/12/10 00:20:17;;;;;;;5.53;1.20;;;3.80;99.90;;;;;;5092925;28;20027;-82
2021/12/10 00:22:55;;;;;;;6.20;1.07;;;3.80;99.90;;;;;;5093620;28;20020;-82
2021/12/10 00:25:25;;;;;;;3.53;1.07;;;3.80;99.90;;;;;;5092985;28;20020;-83
2021/12/10 00:27:53;;;;;;;4.57;1.47;;;3.80;99.90;;;;;;5094210;28;20019;-83
2021/12/10 00:30:28;;;;;;;4.67;0.90;;;3.80;99.90;;;;;;5092406;28;20132;-83
2021/12/10 00:33:13;;;;;;;3.70;0.97;;;3.80;99.90;;;;;;5093563;28;20089;-83
2021/12/10 00:35:41;;;;;;;7.27;1.10;;;3.80;99.90;;;;;;5092600;28;20020;-83
2021/12/10 00:38:09;;;;;;;4.20;1.10;;;3.80;99.90;;;;;;5093031;28;20024;-82
2021/12/10 00:40:35;;;;;;;3.63;0.90;;;3.80;99.90;;;;;;5093217;28;20031;-83
2021/12/10 00:43:02;;;;;;;3.00;0.77;;;3.80;99.90;;;;;;5092850;28;20036;-83
2021/12/10 00:45:28;;;;;;;3.47;1.00;;;3.80;99.90;;;;;;5092913;28;20050;-82
2021/12/10 00:47:54;;;;;;;2.33;0.97;;;3.70;99.90;;;;;;5093011;28;20024;-83
2021/12/10 00:50:27;;;;;;;8.27;1.40;;;3.70;99.90;;;;;;5092052;28;20020;-83
2021/12/10 00:52:54;;;;;;;2.93;1.20;;;3.70;99.90;;;;;;5094247;28;20073;-83
2021/12/10 00:55:22;;;;;;;2.50;1.20;;;3.60;99.90;;;;;;5092239;28;20046;-83
2021/12/10 00:57:47;;;;;;;2.47;0.93;;;3.60;99.90;;;;;;5092658;28;20024;-83
2021/12/10 01:00:24;;;;;;;2.93;1.00;;;3.60;99.90;;;;;;5092572;28;20024;-83
2021/12/10 01:02:50;;;;;;;2.87;0.97;;;3.50;99.90;;;;;;5093885;28;20042;-83
2021/12/10 01:05:18;;;;;;;5.20;1.00;;;3.40;99.90;;;;;;5093772;28;20020;-83
2021/12/10 01:07:45;;;;;;;3.80;1.20;;;3.40;99.90;;;;;;5092200;28;20035;-84
2021/12/10 01:10:47;;;;;;;8.73;1.43;;;3.40;99.90;;;;;;5093299;28;20027;-83
2021/12/10 01:13:17;;;;;;;;;;;3.40;99.90;;;;;;5075652;28;20051;-82
2021/12/10 01:16:08;;;;;;;3.73;1.30;;;3.40;99.90;;;;;;5092570;28;19906;-83
2021/12/10 01:24:19;;;;;;;15.47;2.93;;;3.40;99.90;;;;;;5073501;28;20511;-83
2021/12/10 01:29:36;;;;;;;9.70;3.20;;;3.30;99.90;;;;;;5096032;28;20020;-83
2021/12/10 01:32:05;;;;;;;8.47;2.50;;;3.20;99.90;;;;;;5079975;28;20020;-83
2021/12/10 01:34:31;;;;;;;7.13;1.70;;;3.10;99.90;;;;;;5096270;28;20107;-83
2021/12/10 01:36:57;;;;;;;4.67;1.53;;;3.10;99.90;;;;;;5097382;28;20111;-83
2021/12/10 01:39:27;;;;;;;4.30;1.43;;;3.20;99.90;;;;;;5096220;28;20115;-83
2021/12/10 01:41:58;;;;;;;10.20;1.80;;;3.20;99.90;;;;;;5096366;28;20059;-83
2021/12/10 01:44:29;;;;;;;5.17;2.13;;;3.10;99.90;;;;;;5095890;28;20027;-83
2021/12/10 01:46:59;;;;;;;5.85;2.17;;;3.00;99.90;;;;;;5096770;28;20050;-83
2021/12/10 01:49:25;;;;;;;4.13;1.63;;;2.90;99.90;;;;;;5095604;28;20445;-83
2021/12/10 01:51:51;;;;;;;6.83;1.57;;;2.90;99.90;;;;;;5097522;28;20145;-84
2021/12/10 01:54:25;;;;;;;3.40;1.57;;;2.90;99.90;;;;;;5096419;28;20020;-83
2021/12/10 01:56:56;;;;;;;7.63;1.80;;;2.90;99.90;;;;;;5095867;28;20024;-83
2021/12/10 01:59:26;;;;;;;5.95;1.20;;;2.80;99.90;;;;;;5096751;28;20049;-83
2021/12/10 02:01:56;;;;;;;3.60;1.50;;;2.80;99.90;;;;;;5097018;28;20122;-83
2021/12/10 02:04:25;;;;;;;3.70;1.20;;;2.80;99.90;;;;;;5095872;28;20027;-83
2021/12/10 02:06:51;;;;;;;3.87;1.30;;;2.70;99.90;;;;;;5097329;28;20031;-83
2021/12/10 02:09:17;;;;;;;3.07;1.37;;;2.70;99.90;;;;;;5095697;28;20016;-83
2021/12/10 02:11:44;;;;;;;4.47;1.40;;;2.70;99.90;;;;;;5097401;28;20024;-82
2021/12/10 02:14:10;;;;;;;4.93;0.90;;;2.70;99.90;;;;;;5099514;28;20023;-83
2021/12/10 02:16:37;;;;;;;5.33;1.20;;;2.80;99.90;;;;;;5098600;28;20023;-83
2021/12/10 02:19:05;;;;;;;5.73;1.57;;;2.70;99.90;;;;;;5099251;28;20027;-83
2021/12/10 02:21:33;;;;;;;6.93;1.67;;;2.70;99.90;;;;;;5116882;28;20077;-83
2021/12/10 02:24:01;;;;;;;3.87;1.37;;;2.50;99.90;;;;;;5099058;28;20026;-83
2021/12/10 02:26:30;;;;;;;6.53;1.50;;;2.50;99.90;;;;;;5098585;28;20020;-83
2021/12/10 02:28:56;;;;;;;7.17;1.87;;;2.40;99.90;;;;;;5098677;28;20058;-83
2021/12/10 02:31:22;;;;;;;3.93;1.47;;;2.50;99.90;;;;;;5116626;28;20024;-83
2021/12/10 02:33:48;;;;;;;7.40;2.07;;;2.40;99.90;;;;;;5116636;28;20026;-84
2021/12/10 02:36:14;;;;;;;7.53;1.50;;;2.40;99.90;;;;;;5098798;28;20025;-83
2021/12/10 02:38:44;;;;;;;9.23;1.83;;;2.40;99.90;;;;;;5116225;28;20489;-82
2021/12/10 02:41:10;;;;;;;5.27;1.63;;;2.40;99.90;;;;;;5098515;28;20416;-83
2021/12/10 02:43:36;;;;;;;4.60;1.90;;;2.40;99.90;;;;;;5116557;28;20051;-83
2021/12/10 02:46:03;;;;;;;6.53;1.57;;;2.30;99.90;;;;;;5098920;28;20031;-83
2021/12/10 02:48:29;;;;;;;6.77;1.63;;;2.30;99.90;;;;;;5097672;28;20145;-83
2021/12/10 02:50:56;;;;;;;4.73;1.90;;;2.40;99.90;;;;;;5098245;28;20345;-82
2021/12/10 02:53:27;;;;;;;7.37;1.80;;;2.40;99.90;;;;;;5098752;28;20086;-83
2021/12/10 02:55:53;;;;;;;6.07;2.10;;;2.40;99.90;;;;;;5116384;28;20073;-83
2021/12/10 02:58:19;;;;;;;9.30;1.77;;;2.30;99.90;;;;;;5098614;28;20024;-82
2021/12/10 03:00:54;;;;;;;7.00;1.40;;;2.10;99.90;;;;;;5097800;28;20024;-83
2021/12/10 03:03:20;;;;;;;6.17;1.30;;;2.10;99.90;;;;;;5116433;28;20028;-83
2021/12/10 03:05:46;;;;;;;8.70;1.70;;;2.10;99.90;;;;;;5116469;28;20457;-83
2021/12/10 03:08:12;;;;;;;4.97;1.33;;;2.00;99.90;;;;;;5098285;28;20024;-83
2021/12/10 03:10:38;;;;;;;7.80;1.30;;;1.90;99.90;;;;;;5115462;28;20016;-82
2021/12/10 03:13:05;;;;;;;3.63;1.20;;;1.90;99.90;;;;;;5094548;28;20377;-83
2021/12/10 03:15:32;;;;;;;5.83;1.60;;;1.90;99.90;;;;;;5094392;28;20078;-83
2021/12/10 03:17:59;;;;;;;3.20;1.13;;;1.80;99.90;;;;;;5095543;28;20086;-83
2021/12/10 03:20:28;;;;;;;2.77;1.10;;;1.80;99.90;;;;;;5094596;28;20024;-83
2021/12/10 03:22:54;;;;;;;4.73;1.30;;;1.90;99.90;;;;;;5094360;28;20054;-83
2021/12/10 03:25:20;;;;;;;3.90;1.43;;;1.80;99.90;;;;;;5094212;28;20020;-83
2021/12/10 03:27:47;;;;;;;4.23;1.27;;;1.70;99.90;;;;;;5095078;28;20023;-83
2021/12/10 03:30:17;;;;;;;6.40;1.40;;;1.70;99.90;;;;;;5095317;28;20018;-83
2021/12/10 03:32:44;;;;;;;1.80;0.90;;;1.60;99.90;;;;;;5094033;28;20027;-83
2021/12/10 03:35:16;;;;;;;3.03;1.10;;;1.60;99.90;;;;;;5094690;28;20024;-83
2021/12/10 03:37:43;;;;;;;3.40;1.00;;;1.60;99.90;;;;;;5093717;28;20020;-83
2021/12/10 03:40:11;;;;;;;4.13;1.03;;;1.60;99.90;;;;;;5094293;28;20130;-83
2021/12/10 03:42:39;;;;;;;4.00;0.97;;;1.50;99.90;;;;;;5093581;28;20106;-83
2021/12/10 03:45:07;;;;;;;3.13;1.20;;;1.60;99.90;;;;;;5093953;28;20028;-82
2021/12/10 03:47:33;;;;;;;2.77;0.80;;;1.60;99.90;;;;;;5093932;28;20027;-82
2021/12/10 03:49:59;;;;;;;2.67;0.90;;;1.50;99.90;;;;;;5093856;28;20354;-82
2021/12/10 03:52:25;;;;;;;3.50;0.83;;;1.50;99.90;;;;;;5093237;28;20023;-82
2021/12/10 03:54:50;;;;;;;6.43;1.13;;;1.50;99.90;;;;;;5094636;28;20015;-83
2021/12/10 03:57:18;;;;;;;3.73;1.00;;;1.40;99.90;;;;;;5094100;28;20089;-82
2021/12/10 03:59:44;;;;;;;1.40;0.73;;;1.40;99.90;;;;;;5094413;28;20023;-82
2021/12/10 04:02:10;;;;;;;2.10;0.83;;;1.40;99.90;;;;;;5093853;28;20445;-83
2021/12/10 04:04:44;;;;;;;2.00;1.00;;;1.40;99.90;;;;;;5094527;28;20111;-82
2021/12/10 04:07:14;;;;;;;5.40;1.00;;;1.40;99.90;;;;;;5093829;28;20024;-82
2021/12/10 04:09:40;;;;;;;1.93;0.60;;;1.40;99.90;;;;;;5092786;28;20035;-82
2021/12/10 04:12:08;;;;;;;2.47;0.97;;;1.40;99.90;;;;;;5099721;28;20043;-82
2021/12/10 04:14:35;;;;;;;3.17;0.90;;;1.40;99.90;;;;;;5096748;28;20031;-81
2021/12/10 04:17:03;;;;;;;4.70;1.00;;;1.40;99.90;;;;;;5096934;28;20023;-82
2021/12/10 04:19:30;;;;;;;1.83;1.00;;;1.40;99.90;;;;;;5097068;28;20020;-82
2021/12/10 04:21:57;;;;;;;3.87;0.80;;;1.50;99.90;;;;;;5114660;28;20141;-82
2021/12/10 04:24:25;;;;;;;3.40;0.87;;;1.50;99.90;;;;;;5114878;28;20022;-82
2021/12/10 04:26:52;;;;;;;3.60;0.87;;;1.60;99.90;;;;;;5076289;28;20187;-82
2021/12/10 04:29:21;;;;;;;6.33;1.00;;;1.60;99.90;;;;;;5076235;28;20028;-82
2021/12/10 04:31:49;;;;;;;4.57;0.80;;;1.60;99.90;;;;;;5075464;28;20514;-83
2021/12/10 04:34:14;;;;;;;4.60;1.00;;;1.70;99.90;;;;;;5076622;28;20046;-82
2021/12/10 04:36:40;;;;;;;4.17;0.90;;;1.70;99.90;;;;;;5075739;28;20523;-82
2021/12/10 04:39:06;;;;;;;3.70;0.80;;;1.70;99.90;;;;;;5075776;28;20032;-82
2021/12/10 04:41:32;;;;;;;4.03;0.77;;;1.70;99.90;;;;;;5075983;28;20020;-82
2021/12/10 04:43:58;;;;;;;5.17;0.97;;;1.70;99.90;;;;;;5094327;28;20068;-83
2021/12/10 04:46:24;;;;;;;4.40;0.70;;;1.70;99.90;;;;;;5076426;28;20429;-82
2021/12/10 04:48:59;;;;;;;1.93;0.50;;;1.60;99.90;;;;;;5075512;28;20020;-82
2021/12/10 04:51:29;;;;;;;1.90;0.70;;;1.60;99.90;;;;;;5075905;28;20022;-82
2021/12/10 04:53:57;;;;;;;4.37;0.60;;;1.60;99.90;;;;;;5093776;28;20016;-82
2021/12/10 04:56:24;;;;;;;5.40;0.80;;;1.70;99.90;;;;;;5091836;28;20034;-82
2021/12/10 04:58:51;;;;;;;3.70;0.90;;;1.70;99.90;;;;;;5095830;28;20043;-82
2021/12/10 05:01:17;;;;;;;2.60;0.70;;;1.70;99.90;;;;;;5096166;28;20072;-82
2021/12/10 05:03:42;;;;;;;6.93;0.70;;;1.70;99.90;;;;;;5113783;28;20016;-82
2021/12/10 05:06:08;;;;;;;5.17;0.90;;;1.80;99.90;;;;;;5096068;28;20023;-82
2021/12/10 05:08:36;;;;;;;3.93;0.70;;;1.80;99.90;;;;;;5113863;28;20051;-83
2021/12/10 05:11:05;;;;;;;1.83;0.50;;;1.70;99.90;;;;;;5095974;28;20444;-82
2021/12/10 05:13:30;;;;;;;4.63;0.90;;;1.70;99.90;;;;;;5096130;28;20048;-83
2021/12/10 05:15:58;;;;;;;3.60;0.70;;;1.70;99.90;;;;;;5095783;28;20096;-83
2021/12/10 05:18:26;;;;;;;2.17;0.50;;;1.70;99.90;;;;;;5096110;28;20368;-83
2021/12/10 05:20:53;;;;;;;2.33;0.80;;;1.80;99.90;;;;;;5095371;28;20054;-82
2021/12/10 05:23:19;;;;;;;1.57;1.03;;;1.70;99.90;;;;;;5095919;28;20077;-82
2021/12/10 05:25:45;;;;;;;4.57;1.20;;;1.80;99.90;;;;;;5113604;28;20019;-83
2021/12/10 05:28:11;;;;;;;2.97;1.00;;;1.80;99.90;;;;;;5096016;28;20026;-82
2021/12/10 05:30:38;;;;;;;2.13;0.90;;;1.80;99.90;;;;;;5113663;28;20357;-82
2021/12/10 05:33:05;;;;;;;4.33;0.63;;;1.80;99.90;;;;;;5114103;28;20102;-83
2021/12/10 05:35:33;;;;;;;3.20;0.80;;;1.70;99.90;;;;;;5096271;28;20138;-82
2021/12/10 05:37:59;;;;;;;8.10;0.80;;;1.80;99.90;;;;;;5095017;28;20106;-82
2021/12/10 05:40:25;;;;;;;4.13;1.00;;;1.80;99.90;;;;;;5096150;28;20059;-82
2021/12/10 05:42:51;;;;;;;2.40;0.57;;;1.80;99.90;;;;;;5095140;28;20039;-82
2021/12/10 05:45:19;;;;;;;6.63;0.90;;;1.80;99.90;;;;;;5095561;28;20067;-82
2021/12/10 05:47:46;;;;;;;4.03;1.10;;;1.80;99.90;;;;;;5113237;28;20094;-82
2021/12/10 05:50:16;;;;;;;1.50;0.90;;;1.80;99.90;;;;;;5095818;28;20072;-83
2021/12/10 05:52:41;;;;;;;4.10;1.03;;;1.80;99.90;;;;;;5095159;28;20025;-82
2021/12/10 05:55:08;;;;;;;2.40;0.83;;;1.80;99.90;;;;;;5113962;28;20073;-83
2021/12/10 05:57:34;;;;;;;3.37;0.83;;;1.80;99.90;;;;;;5095869;28;20054;-82
2021/12/10 06:00:00;;;;;;;7.20;1.10;;;1.80;99.90;;;;;;5095219;28;20023;-82
2021/12/10 06:02:25;;;;;;;4.73;1.10;;;1.90;99.90;;;;;;5113783;28;20020;-82
2021/12/10 06:04:51;;;;;;;2.73;0.80;;;1.90;99.90;;;;;;5094978;28;20024;-83
2021/12/10 06:07:18;;;;;;;3.20;1.00;;;1.90;99.90;;;;;;5113732;28;20488;-83
2021/12/10 06:09:44;;;;;;;4.53;1.20;;;1.90;99.90;;;;;;5113523;28;20352;-82
2021/12/10 06:12:10;;;;;;;4.37;1.00;;;1.90;99.90;;;;;;5112878;28;20069;-82
2021/12/10 06:14:36;;;;;;;3.83;1.40;;;1.90;99.90;;;;;;5115267;28;20024;-82
2021/12/10 06:17:02;;;;;;;3.40;1.33;;;1.90;99.90;;;;;;5116847;28;20155;-82
2021/12/10 06:19:28;;;;;;;4.17;1.60;;;1.90;99.90;;;;;;5099390;28;20024;-82
2021/12/10 06:21:54;;;;;;;4.87;1.50;;;1.90;99.90;;;;;;5116703;28;20026;-82
2021/12/10 06:24:20;;;;;;;4.33;1.70;;;2.00;99.90;;;;;;5099328;28;20016;-83
2021/12/10 06:26:46;;;;;;;5.73;2.03;;;2.00;99.90;;;;;;5079372;28;20051;-83
2021/12/10 06:29:11;;;;;;;4.23;2.33;;;2.00;99.90;;;;;;5078860;28;20031;-82
2021/12/10 06:31:38;;;;;;;6.20;2.23;;;2.00;99.90;;;;;;5078111;28;20024;-83
2021/12/10 06:34:04;;;;;;;4.90;2.20;;;1.90;99.90;;;;;;5096901;28;20020;-82
2021/12/10 06:36:30;;;;;;;4.57;2.00;;;1.90;99.90;;;;;;5079007;28;20031;-82
2021/12/10 06:38:57;;;;;;;4.80;2.03;;;1.90;99.90;;;;;;5078119;28;20028;-83
2021/12/10 06:41:23;;;;;;;6.70;2.80;;;2.00;99.90;;;;;;5096705;28;20468;-82
2021/12/10 06:43:49;;;;;;;4.40;2.50;;;1.90;99.90;;;;;;5078190;28;20079;-83
2021/12/10 06:46:16;;;;;;;4.97;2.40;;;1.90;99.90;;;;;;5078636;28;20028;-82
2021/12/10 06:48:42;;;;;;;9.30;3.33;;;1.90;99.90;;;;;;5078038;28;20016;-83
2021/12/10 06:51:21;;;;;;;5.47;2.97;;;1.90;99.90;;;;;;5095670;28;20020;-82
2021/12/10 06:53:47;;;;;;;6.50;2.80;;;2.00;99.90;;;;;;5077729;28;20020;-82
2021/12/10 06:56:14;;;;;;;7.77;3.27;;;1.90;99.90;;;;;;5092474;28;20459;-82
2021/12/10 06:58:42;;;;;;;6.40;3.10;;;1.90;99.90;;;;;;5097739;28;20023;-82
2021/12/10 07:01:22;;;;;;;8.17;3.20;;;2.00;99.90;;;;;;5098415;28;20020;-82
2021/12/10 07:03:50;;;;;;;4.27;2.57;;;1.90;99.90;;;;;;5097962;28;20062;-82
2021/12/10 07:06:17;;;;;;;5.77;2.97;;;1.90;99.90;;;;;;5116375;28;20072;-82
2021/12/10 07:08:46;;;;;;;7.83;2.90;;;1.90;99.90;;;;;;5097858;28;20016;-83
2021/12/10 07:11:14;;;;;;;5.00;2.73;;;2.00;99.90;;;;;;5097841;28;20023;-82
2021/12/10 07:13:43;;;;;;;6.80;2.43;;;2.00;99.90;;;;;;5115691;28;20048;-82
2021/12/10 07:16:09;;;;;;;4.60;2.70;;;1.90;99.90;;;;;;5097994;28;20027;-81
2021/12/10 07:18:35;;;;;;;5.40;2.97;;;2.00;99.90;;;;;;5115671;28;20055;-82
2021/12/10 07:21:01;;;;;;;6.63;2.77;;;2.00;99.90;;;;;;5115565;28;20207;-82
2021/12/10 07:23:27;;;;;;;8.10;2.80;;;2.00;99.90;;;;;;5115764;28;20073;-82
2021/12/10 07:25:53;;;;;;;5.77;2.87;;;2.00;99.90;;;;;;5095993;28;20054;-82
2021/12/10 07:28:19;;;;;;;5.73;2.97;;;2.00;99.90;;;;;;5116126;28;20051;-81
2021/12/10 07:30:47;;;;;;;4.07;2.67;;;2.00;99.90;;;;;;5097142;28;20020;-82
2021/12/10 07:33:13;;;;;;;8.40;2.83;;;2.00;99.90;;;;;;5116161;28;20466;-82
2021/12/10 07:35:39;;;;;;;5.03;3.00;;;1.90;99.90;;;;;;5098024;28;20455;-82
2021/12/10 07:38:06;;;;;;;6.30;2.73;;;2.00;99.90;;;;;;5097116;28;20090;-82
2021/12/10 07:40:34;;;;;;;4.73;2.47;;;2.00;99.90;;;;;;5097629;28;20034;-82
2021/12/10 07:42:59;;;;;;;6.60;2.70;;;2.00;99.90;;;;;;5114706;28;20027;-81
2021/12/10 07:45:26;;;;;;;9.90;3.00;;;2.00;99.90;;;;;;5097643;28;20083;-82
2021/12/10 07:47:55;;;;;;;6.67;2.73;;;2.00;99.90;;;;;;5097148;28;20034;-82
2021/12/10 07:50:26;;;;;;;7.43;2.67;;;2.00;99.90;;;;;;5115623;28;20053;-82
2021/12/10 07:52:56;;;;;;;8.13;3.23;;;2.00;99.90;;;;;;5096303;28;20020;-83
2021/12/10 07:55:28;;;;;;;7.60;3.07;;;2.10;99.90;;;;;;5097409;28;20042;-82
2021/12/10 07:57:54;;;;;;;5.50;2.78;;;2.10;99.90;;;;;;5115100;28;20467;-82
2021/12/10 08:00:23;;;;;;;6.77;3.10;;;2.20;99.90;;;;;;5097202;28;20031;-82
2021/12/10 08:02:49;;;;;;;6.80;2.77;;;2.20;99.90;;;;;;5096741;28;20051;-83
2021/12/10 08:05:16;;;;;;;5.80;2.97;;;2.30;99.90;;;;;;5097457;28;20030;-81
2021/12/10 08:07:42;;;;;;;8.23;2.37;;;2.40;99.90;;;;;;5097181;28;20051;-82
2021/12/10 08:10:10;;;;;;;6.53;2.17;;;2.40;99.90;;;;;;5096601;28;20015;-82
2021/12/10 08:12:36;;;;;;;9.40;2.30;;;2.40;99.90;;;;;;5095896;28;20075;-82
2021/12/10 08:15:03;;;;;;;5.67;2.37;;;2.40;99.90;;;;;;5096996;28;20032;-82
2021/12/10 08:17:28;;;;;;;7.57;2.37;;;2.40;99.90;;;;;;5096642;28;20092;-82
2021/12/10 08:19:54;;;;;;;4.67;2.53;;;2.50;99.90;;;;;;5096878;28;20513;-82
2021/12/10 08:22:20;;;;;;;3.80;2.20;;;2.50;99.90;;;;;;5096941;28;20521;-82
2021/12/10 08:24:47;;;;;;;5.10;2.33;;;2.60;99.90;;;;;;5114249;28;20043;-83
2021/12/10 08:27:13;;;;;;;4.07;2.20;;;2.60;99.90;;;;;;5096526;28;20023;-82
2021/12/10 08:29:42;;;;;;;5.90;2.77;;;2.50;99.90;;;;;;5096615;28;20404;-82
2021/12/10 08:32:12;;;;;;;6.13;3.47;;;2.50;99.90;;;;;;5095838;28;20061;-81
2021/12/10 08:34:38;;;;;;;5.20;3.20;;;2.50;99.90;;;;;;5096769;28;20049;-82
2021/12/10 08:37:04;;;;;;;9.87;2.70;;;2.50;99.90;;;;;;5095732;28;20032;-82
2021/12/10 08:39:29;;;;;;;5.70;3.00;;;2.70;99.90;;;;;;5096114;28;20119;-82
2021/12/10 08:41:56;;;;;;;8.40;3.07;;;2.70;99.80;;;;;;5096079;28;20456;-82
2021/12/10 08:44:23;;;;;;;6.67;3.10;;;2.70;99.90;;;;;;5096199;28;20031;-81
2021/12/10 08:46:49;;;;;;;7.10;3.23;;;2.70;99.90;;;;;;5095985;28;20020;-82
2021/12/10 08:49:14;;;;;;;6.07;3.23;;;2.70;99.90;;;;;;5096787;28;20026;-82
2021/12/10 08:51:51;;;;;;;6.17;2.90;;;2.80;99.80;;;;;;5114270;28;20028;-82
2021/12/10 08:54:19;;;;;;;9.37;3.07;;;2.80;99.90;;;;;;5114400;28;20090;-82
2021/12/10 08:56:47;;;;;;;6.17;2.80;;;2.80;99.90;;;;;;5114031;28;20020;-81
2021/12/10 08:59:13;;;;;;;7.43;3.10;;;3.00;99.90;;;;;;5078941;28;20063;-82
2021/12/10 09:01:45;;;;;;;9.47;3.10;;;2.90;99.90;;;;;;5096302;28;20026;-81
2021/12/10 09:04:12;;;;;;;6.90;3.30;;;3.00;99.30;;;;;;5114142;28;20455;-82
2021/12/10 09:06:41;;;;;;;4.80;2.47;;;3.10;98.60;;;;;;5113921;28;20034;-81
2021/12/10 09:09:10;;;;;;;5.13;2.40;;;3.20;98.40;;;;;;5095865;28;20352;-82
2021/12/10 09:11:38;;;;;;;5.93;2.63;;;3.20;98.00;;;;;;5095862;28;20043;-82
2021/12/10 09:14:07;;;;;;;5.47;2.13;;;3.20;97.80;;;;;;5095459;28;20097;-82
2021/12/10 09:16:35;;;;;;;4.30;1.63;;;3.20;98.10;;;;;;5096286;28;20055;-82
2021/12/10 09:19:04;;;;;;;6.53;1.60;;;3.10;98.50;;;;;;5095765;28;20051;-82
2021/12/10 09:21:32;;;;;;;3.87;1.90;;;3.00;99.10;;;;;;5096278;28;20054;-82
2021/12/10 09:24:03;;;;;;;5.83;1.63;;;2.90;99.60;;;;;;5113778;28;20048;-82
2021/12/10 09:26:31;;;;;;;4.22;1.75;;;3.00;99.90;;;;;;5095896;28;20064;-82
2021/12/10 09:28:58;;;;;;;3.37;1.50;;;2.90;99.90;;;;;;5113340;28;20019;-83
2021/12/10 09:31:24;;;;;;;4.90;1.57;;;2.90;99.90;;;;;;5095680;28;20019;-82
2021/12/10 09:33:56;;;;;;;3.87;1.70;;;2.90;99.90;;;;;;5095529;28;20020;-82
2021/12/10 09:36:22;;;;;;;4.80;1.47;;;2.90;99.90;;;;;;5095940;28;20032;-82
2021/12/10 09:38:48;;;;;;;5.87;1.70;;;2.90;99.90;;;;;;5095746;28;20344;-82
2021/12/10 09:41:15;;;;;;;5.20;1.40;;;2.90;99.90;;;;;;5095782;28;20020;-82
2021/12/10 09:43:41;;;;;;;4.67;1.50;;;3.00;99.90;;;;;;5095616;28;20085;-81
2021/12/10 09:46:09;;;;;;;4.47;1.20;;;3.10;99.90;;;;;;5113597;28;20024;-83
2021/12/10 09:48:35;;;;;;;5.77;2.20;;;3.10;99.90;;;;;;5095793;28;20053;-81
2021/12/10 09:51:12;;;;;;;5.47;1.97;;;3.10;99.90;;;;;;5116846;28;20027;-82
2021/12/10 09:53:40;;;;;;;4.77;2.00;;;3.10;99.90;;;;;;5099423;28;20030;-82
2021/12/10 09:56:07;;;;;;;4.47;2.07;;;3.10;99.90;;;;;;5099290;28;20037;-81
2021/12/10 09:58:33;;;;;;;8.70;2.40;;;3.10;99.90;;;;;;5099662;28;20483;-83
2021/12/10 10:01:09;;;;;;;7.43;2.20;;;3.10;99.90;;;;;;5099071;28;20022;-82
2021/12/10 10:03:39;;;;;;;3.10;1.77;;;3.10;99.90;;;;;;5117321;28;20072;-82
2021/12/10 10:06:05;;;;;;;5.03;2.20;;;3.10;99.90;;;;;;5117087;28;20024;-83
2021/12/10 10:08:32;;;;;;;8.87;2.20;;;3.10;99.90;;;;;;5098726;28;20165;-82
2021/12/10 10:11:04;;;;;;;4.03;1.90;;;3.10;99.90;;;;;;5116498;28;20098;-83
2021/12/10 10:13:34;;;;;;;6.53;2.17;;;3.10;99.90;;;;;;5095392;28;20056;-82
2021/12/10 10:16:01;;;;;;;6.87;2.17;;;3.20;99.90;;;;;;5096758;28;20020;-83
2021/12/10 10:18:29;;;;;;;3.40;1.83;;;3.20;99.90;;;;;;5095747;28;20031;-82
2021/12/10 10:21:00;;;;;;;5.40;1.87;;;3.20;99.90;;;;;;5094084;28;20016;-83
2021/12/10 10:23:27;;;;;;;7.27;1.87;;;3.30;99.90;;;;;;5095148;28;20016;-82
2021/12/10 10:25:56;;;;;;;6.57;1.93;;;3.40;99.90;;;;;;5083152;28;20025;-82
2021/12/10 10:28:24;;;;;;;4.13;1.93;;;3.40;99.90;;;;;;5076133;28;20174;-82
2021/12/10 10:31:04;;;;;;;6.67;2.00;;;3.40;99.90;;;;;;5075079;28;20021;-82
2021/12/10 10:33:34;;;;;;;4.87;1.80;;;3.40;99.90;;;;;;5075017;28;20024;-83
2021/12/10 10:36:06;;;;;;;7.37;1.90;;;3.50;99.90;;;;;;5074632;28;20074;-82
2021/12/10 10:38:32;;;;;;;5.13;1.97;;;3.50;99.90;;;;;;5076263;28;20017;-82
2021/12/10 10:41:06;;;;;;;6.00;1.97;;;3.60;99.90;;;;;;5074691;28;20115;-83
2021/12/10 10:43:33;;;;;;;7.40;2.50;;;3.60;99.90;;;;;;5075530;28;20434;-82
2021/12/10 10:45:59;;;;;;;4.93;2.30;;;3.70;99.90;;;;;;5075537;28;20027;-83
2021/12/10 10:48:26;;;;;;;5.53;2.63;;;3.70;99.90;;;;;;5074945;28;20021;-82
2021/12/10 10:50:51;;;;;;;7.43;2.60;;;3.80;99.90;;;;;;5076018;28;20024;-82
2021/12/10 10:53:23;;;;;;;7.63;3.20;;;3.70;99.90;;;;;;5073852;28;20473;-82
2021/12/10 10:55:57;;;;;;;9.23;3.00;;;3.80;99.90;;;;;;5085608;28;20399;-82
2021/12/10 10:58:25;;;;;;;5.57;2.50;;;3.70;99.90;;;;;;5095083;28;20448;-83
2021/12/10 11:01:02;;;;;;;7.47;2.90;;;3.70;99.90;;;;;;5094833;28;20032;-82
2021/12/10 11:03:37;;;;;;;6.73;3.63;;;3.70;99.90;;;;;;5095198;28;20020;-82
2021/12/10 11:06:11;;;;;;;8.00;3.27;;;3.60;99.90;;;;;;5094709;28;20046;-82
2021/12/10 11:08:44;;;;;;;6.23;2.83;;;3.70;99.90;;;;;;5096185;28;20026;-82
2021/12/10 11:11:24;;;;;;;6.50;2.83;;;3.70;99.90;;;;;;5094275;28;20024;-82
2021/12/10 11:14:06;;;;;;;8.40;2.70;;;3.70;99.90;;;;;;5094396;28;20147;-82
2021/12/10 11:16:35;;;;;;;4.43;2.30;;;3.70;99.90;;;;;;5094456;28;20057;-82
2021/12/10 11:19:13;;;;;;;7.33;2.70;;;3.70;99.90;;;;;;5094161;28;20035;-82
2021/12/10 11:21:50;;;;;;;8.53;2.70;;;3.80;99.90;;;;;;5094839;28;20365;-82
2021/12/10 11:24:37;;;;;;;4.87;2.63;;;3.80;99.90;;;;;;5073885;28;20104;-82
2021/12/10 11:27:35;;;;;;;9.60;3.23;;;3.70;99.90;;;;;;5074998;28;20024;-82
2021/12/10 11:30:04;;;;;;;7.47;2.53;;;3.70;99.90;;;;;;5072660;28;20029;-83
2021/12/10 11:32:41;;;;;;;5.37;2.70;;;3.60;99.90;;;;;;5073978;28;20055;-82
2021/12/10 11:35:08;;;;;;;4.20;2.70;;;3.70;99.90;;;;;;5073763;28;20021;-82
2021/12/10 11:37:46;;;;;;;4.10;2.40;;;3.70;99.90;;;;;;5074143;28;20058;-82
2021/12/10 11:40:27;;;;;;;5.87;2.77;;;3.60;99.90;;;;;;5074586;28;20029;-83
2021/12/10 11:43:02;;;;;;;6.13;2.40;;;3.60;99.90;;;;;;5078350;28;20108;-82
2021/12/10 11:45:41;;;;;;;5.63;2.13;;;3.60;99.90;;;;;;5093969;28;20024;-82
2021/12/10 11:48:12;;;;;;;10.37;2.57;;;3.70;99.90;;;;;;5093185;28;20051;-82
2021/12/10 11:51:00;;;;;;;3.27;1.93;;;3.70;99.90;;;;;;5093648;28;20107;-82
2021/12/10 11:53:42;;;;;;;6.50;1.90;;;3.70;99.90;;;;;;5094645;28;20012;-83
2021/12/10 11:56:14;;;;;;;6.07;1.50;;;3.80;99.90;;;;;;5093428;28;20024;-83
2021/12/10 11:58:40;;;;;;;5.35;1.63;;;3.80;99.90;;;;;;5093444;28;20024;-82
2021/12/10 12:01:14;;;;;;;5.10;1.50;;;3.80;99.90;;;;;;5093381;28;20024;-83
2021/12/10 12:03:40;;;;;;;3.07;1.20;;;3.80;99.90;;;;;;5093813;28;20024;-83
2021/12/10 12:06:06;;;;;;;3.80;1.33;;;3.90;99.90;;;;;;5093431;28;20103;-83
2021/12/10 12:08:37;;;;;;;1.53;0.70;;;3.90;99.90;;;;;;5093788;28;20020;-83
2021/12/10 12:11:05;;;;;;;3.72;0.57;;;3.90;99.90;;;;;;5093843;28;20024;-83
2021/12/10 12:13:37;;;;;;;1.43;0.60;;;4.00;99.90;;;;;;5095439;28;20054;-83
2021/12/10 12:16:10;;;;;;;1.10;0.60;;;4.00;99.90;;;;;;5096712;28;20029;-83
2021/12/10 12:19:05;;;;;;;0.70;0.40;;;4.10;99.90;;;;;;5096721;28;20444;-82
2021/12/10 12:27:05;;;;;;;1.97;0.47;;;4.10;99.90;;;;;;5114395;28;20072;-83
2021/12/10 12:29:38;;;;;;;0.83;0.20;;;4.10;99.90;;;;;;5096691;28;20484;-83
2021/12/10 12:32:37;;;;;;;1.60;0.50;;;4.10;99.90;;;;;;5095895;28;20509;-83
2021/12/10 12:35:26;;;;;;;1.17;0.37;;;4.10;99.90;;;;;;5109385;28;20053;-83
2021/12/10 12:38:07;;;;;;;0.47;0.30;;;4.10;99.90;;;;;;5096816;28;20027;-82
2021/12/10 12:40:33;;;;;;;2.47;0.70;;;4.10;99.90;;;;;;5096501;28;20023;-82
2021/12/10 12:43:04;;;;;;;4.60;1.90;;;4.10;99.90;;;;;;5114764;28;20115;-83
2021/12/10 12:45:31;;;;;;;5.17;2.00;;;4.10;99.90;;;;;;5096692;28;20089;-82
2021/12/10 12:48:02;;;;;;;3.67;1.43;;;4.10;99.90;;;;;;5096921;28;20072;-83
2021/12/10 12:50:32;;;;;;;2.53;1.10;;;4.10;99.90;;;;;;5096232;28;20027;-83
2021/12/10 12:53:13;;;;;;;1.37;0.70;;;4.10;99.90;;;;;;5095908;28;20456;-83
2021/12/10 12:56:05;;;;;;;1.83;0.60;;;4.10;99.90;;;;;;5114386;28;20444;-83
2021/12/10 12:58:50;;;;;;;3.33;0.60;;;4.20;99.90;;;;;;5096267;28;20074;-82
2021/12/10 13:01:40;;;;;;;2.83;0.60;;;4.20;99.90;;;;;;5088414;28;20057;-83
2021/12/10 13:04:10;;;;;;;1.97;0.40;;;4.20;99.90;;;;;;5113956;28;20016;-83
2021/12/10 13:06:49;;;;;;;3.20;0.40;;;4.10;99.90;;;;;;5096453;28;20072;-82
2021/12/10 13:09:39;;;;;;;0.97;0.67;;;4.10;99.90;;;;;;5094504;28;20020;-82
2021/12/10 13:14:49;;;;;;;0.77;0.40;;;4.10;99.90;;;;;;5093629;28;20020;-82
2021/12/10 13:17:36;;;;;;;0.90;0.63;;;4.10;99.90;;;;;;5091354;28;20467;-82
2021/12/10 13:20:09;;;;;;;1.63;0.87;;;4.10;99.90;;;;;;5092022;28;20077;-83
2021/12/10 13:22:35;;;;;;;1.07;0.77;;;4.00;99.90;;;;;;5092202;28;20016;-83
2021/12/10 13:25:09;;;;;;;2.47;0.87;;;4.10;99.90;;;;;;5094545;28;20337;-83